sensor_id;sensor_type;location;lat;lon;timestamp;P1;durP1;ratioP1;P2;durP2;ratioP2
65567;SDS011;52211;50.154;8.682;2022-12-10T00:01:48;17.93;;;13.20;;
65567;SDS011;52211;50.154;8.682;2022-12-10T00:04:20;20.23;;;14.03;;
65567;SDS011;52211;50.154;8.682;2022-12-10T00:06:50;18.53;;;13.10;;
65567;SDS011;52211;50.154;8.682;2022-12-10T00:09:19;16.10;;;12.73;;
65567;SDS011;52211;50.154;8.682;2022-12-10T00:11:47;18.37;;;13.30;;
65567;SDS011;52211;50.154;8.682;2022-12-10T00:14:18;20.63;;;14.17;;
65567;SDS011;52211;50.154;8.682;2022-12-10T00:16:45;18.60;;;14.57;;
65567;SDS011;52211;50.154;8.682;2022-12-10T00:19:15;20.30;;;13.83;;
65567;SDS011;52211;50.154;8.682;2022-12-10T00:21:46;16.37;;;12.47;;
65567;SDS011;52211;50.154;8.682;2022-12-10T00:24:13;19.50;;;13.80;;
65567;SDS011;52211;50.154;8.682;2022-12-10T00:26:40;19.10;;;13.33;;
65567;SDS011;52211;50.154;8.682;2022-12-10T00:29:11;18.00;;;12.83;;
65567;SDS011;52211;50.154;8.682;2022-12-10T00:31:38;17.77;;;12.40;;
65567;SDS011;52211;50.154;8.682;2022-12-10T00:34:11;19.13;;;12.83;;
65567;SDS011;52211;50.154;8.682;2022-12-10T00:36:45;16.53;;;11.80;;
65567;SDS011;52211;50.154;8.682;2022-12-10T00:39:18;19.50;;;13.27;;
65567;SDS011;52211;50.154;8.682;2022-12-10T00:41:49;16.07;;;12.80;;
65567;SDS011;52211;50.154;8.682;2022-12-10T00:44:18;16.77;;;12.87;;
65567;SDS011;52211;50.154;8.682;2022-12-10T00:46:48;16.77;;;11.83;;
65567;SDS011;52211;50.154;8.682;2022-12-10T00:49:19;18.37;;;12.03;;
65567;SDS011;52211;50.154;8.682;2022-12-10T00:51:54;14.90;;;11.33;;
65567;SDS011;52211;50.154;8.682;2022-12-10T00:54:23;16.87;;;12.20;;
65567;SDS011;52211;50.154;8.682;2022-12-10T00:56:50;16.03;;;12.53;;
65567;SDS011;52211;50.154;8.682;2022-12-10T00:59:21;14.80;;;10.93;;
65567;SDS011;52211;50.154;8.682;2022-12-10T01:01:50;15.70;;;11.83;;
65567;SDS011;52211;50.154;8.682;2022-12-10T01:04:19;15.80;;;11.77;;
65567;SDS011;52211;50.154;8.682;2022-12-10T01:06:48;13.90;;;11.13;;
65567;SDS011;52211;50.154;8.682;2022-12-10T01:09:22;15.87;;;11.43;;
65567;SDS011;52211;50.154;8.682;2022-12-10T01:12:01;14.47;;;10.80;;
65567;SDS011;52211;50.154;8.682;2022-12-10T01:14:30;17.00;;;12.50;;
65567;SDS011;52211;50.154;8.682;2022-12-10T01:17:03;15.23;;;11.50;;
65567;SDS011;52211;50.154;8.682;2022-12-10T01:19:32;17.63;;;13.07;;
65567;SDS011;52211;50.154;8.682;2022-12-10T01:22:02;18.10;;;11.87;;
65567;SDS011;52211;50.154;8.682;2022-12-10T01:24:35;16.00;;;12.37;;
65567;SDS011;52211;50.154;8.682;2022-12-10T01:27:11;17.50;;;12.40;;
65567;SDS011;52211;50.154;8.682;2022-12-10T01:29:38;16.73;;;11.77;;
65567;SDS011;52211;50.154;8.682;2022-12-10T01:32:08;13.67;;;10.73;;
65567;SDS011;52211;50.154;8.682;2022-12-10T01:34:37;13.50;;;11.43;;
65567;SDS011;52211;50.154;8.682;2022-12-10T01:37:04;12.67;;;10.50;;
65567;SDS011;52211;50.154;8.682;2022-12-10T01:39:31;14.60;;;11.63;;
65567;SDS011;52211;50.154;8.682;2022-12-10T01:42:01;16.43;;;10.67;;
65567;SDS011;52211;50.154;8.682;2022-12-10T01:47:09;15.47;;;11.80;;
65567;SDS011;52211;50.154;8.682;2022-12-10T01:49:40;15.03;;;11.77;;
65567;SDS011;52211;50.154;8.682;2022-12-10T01:52:13;15.07;;;11.63;;
65567;SDS011;52211;50.154;8.682;2022-12-10T01:54:43;15.47;;;10.70;;
65567;SDS011;52211;50.154;8.682;2022-12-10T01:57:16;13.37;;;10.43;;
65567;SDS011;52211;50.154;8.682;2022-12-10T01:59:53;12.77;;;10.63;;
65567;SDS011;52211;50.154;8.682;2022-12-10T02:02:36;13.87;;;10.40;;
65567;SDS011;52211;50.154;8.682;2022-12-10T02:05:26;12.43;;;10.77;;
65567;SDS011;52211;50.154;8.682;2022-12-10T02:11:03;12.73;;;9.90;;
65567;SDS011;52211;50.154;8.682;2022-12-10T02:13:44;11.00;;;9.00;;
65567;SDS011;52211;50.154;8.682;2022-12-10T02:16:29;13.23;;;10.67;;
65567;SDS011;52211;50.154;8.682;2022-12-10T02:19:35;13.57;;;10.40;;
65567;SDS011;52211;50.154;8.682;2022-12-10T02:22:15;13.03;;;10.13;;
65567;SDS011;52211;50.154;8.682;2022-12-10T02:24:51;15.67;;;10.87;;
65567;SDS011;52211;50.154;8.682;2022-12-10T02:29:56;11.87;;;9.83;;
65567;SDS011;52211;50.154;8.682;2022-12-10T02:32:36;12.97;;;10.03;;
65567;SDS011;52211;50.154;8.682;2022-12-10T02:35:11;11.87;;;9.73;;
65567;SDS011;52211;50.154;8.682;2022-12-10T02:37:51;11.80;;;10.07;;
65567;SDS011;52211;50.154;8.682;2022-12-10T02:40:35;12.07;;;9.90;;
65567;SDS011;52211;50.154;8.682;2022-12-10T02:43:07;12.67;;;9.20;;
65567;SDS011;52211;50.154;8.682;2022-12-10T02:45:39;12.23;;;10.07;;
65567;SDS011;52211;50.154;8.682;2022-12-10T02:48:15;10.80;;;9.27;;
65567;SDS011;52211;50.154;8.682;2022-12-10T02:50:46;12.00;;;10.00;;
65567;SDS011;52211;50.154;8.682;2022-12-10T02:53:15;11.90;;;9.80;;
65567;SDS011;52211;50.154;8.682;2022-12-10T02:56:08;12.93;;;10.10;;
65567;SDS011;52211;50.154;8.682;2022-12-10T02:59:14;11.87;;;9.33;;
65567;SDS011;52211;50.154;8.682;2022-12-10T03:07:25;13.87;;;10.53;;
65567;SDS011;52211;50.154;8.682;2022-12-10T03:10:24;10.90;;;9.47;;
65567;SDS011;52211;50.154;8.682;2022-12-10T03:13:09;12.33;;;9.77;;
65567;SDS011;52211;50.154;8.682;2022-12-10T03:15:40;12.03;;;9.90;;
65567;SDS011;52211;50.154;8.682;2022-12-10T03:18:10;11.97;;;9.67;;
65567;SDS011;52211;50.154;8.682;2022-12-10T03:20:45;12.63;;;10.00;;
65567;SDS011;52211;50.154;8.682;2022-12-10T03:23:17;13.03;;;11.10;;
65567;SDS011;52211;50.154;8.682;2022-12-10T03:25:48;12.23;;;9.37;;
65567;SDS011;52211;50.154;8.682;2022-12-10T03:28:19;12.73;;;9.30;;
65567;SDS011;52211;50.154;8.682;2022-12-10T03:30:49;12.20;;;10.50;;
65567;SDS011;52211;50.154;8.682;2022-12-10T03:33:21;10.37;;;9.27;;
65567;SDS011;52211;50.154;8.682;2022-12-10T03:35:55;11.70;;;9.13;;
65567;SDS011;52211;50.154;8.682;2022-12-10T03:38:25;11.47;;;9.70;;
65567;SDS011;52211;50.154;8.682;2022-12-10T03:40:53;10.47;;;8.83;;
65567;SDS011;52211;50.154;8.682;2022-12-10T03:43:24;11.93;;;9.93;;
65567;SDS011;52211;50.154;8.682;2022-12-10T03:45:56;12.87;;;10.10;;
65567;SDS011;52211;50.154;8.682;2022-12-10T03:48:25;11.70;;;9.47;;
65567;SDS011;52211;50.154;8.682;2022-12-10T03:50:55;13.47;;;9.67;;
65567;SDS011;52211;50.154;8.682;2022-12-10T03:53:21;11.77;;;9.60;;
65567;SDS011;52211;50.154;8.682;2022-12-10T03:55:50;12.03;;;9.43;;
65567;SDS011;52211;50.154;8.682;2022-12-10T03:58:22;10.77;;;8.83;;
65567;SDS011;52211;50.154;8.682;2022-12-10T04:00:56;14.33;;;10.43;;
65567;SDS011;52211;50.154;8.682;2022-12-10T04:03:29;13.37;;;9.90;;
65567;SDS011;52211;50.154;8.682;2022-12-10T04:06:04;11.73;;;9.23;;
65567;SDS011;52211;50.154;8.682;2022-12-10T04:08:36;11.80;;;9.43;;
65567;SDS011;52211;50.154;8.682;2022-12-10T04:11:04;12.40;;;9.77;;
65567;SDS011;52211;50.154;8.682;2022-12-10T04:13:33;12.47;;;9.53;;
65567;SDS011;52211;50.154;8.682;2022-12-10T04:16:20;12.57;;;9.33;;
65567;SDS011;52211;50.154;8.682;2022-12-10T04:18:55;10.87;;;9.40;;
65567;SDS011;52211;50.154;8.682;2022-12-10T04:21:37;11.77;;;10.00;;
65567;SDS011;52211;50.154;8.682;2022-12-10T04:24:28;11.97;;;10.07;;
65567;SDS011;52211;50.154;8.682;2022-12-10T04:29:53;12.13;;;10.03;;
65567;SDS011;52211;50.154;8.682;2022-12-10T04:32:26;12.67;;;10.13;;
65567;SDS011;52211;50.154;8.682;2022-12-10T04:34:55;11.40;;;9.87;;
65567;SDS011;52211;50.154;8.682;2022-12-10T04:37:25;12.07;;;9.83;;
65567;SDS011;52211;50.154;8.682;2022-12-10T04:39:56;12.37;;;9.77;;
65567;SDS011;52211;50.154;8.682;2022-12-10T04:42:23;13.73;;;10.70;;
65567;SDS011;52211;50.154;8.682;2022-12-10T04:44:54;13.30;;;10.23;;
65567;SDS011;52211;50.154;8.682;2022-12-10T04:47:28;12.83;;;10.00;;
65567;SDS011;52211;50.154;8.682;2022-12-10T04:49:55;12.83;;;9.77;;
65567;SDS011;52211;50.154;8.682;2022-12-10T04:52:21;14.70;;;10.53;;
65567;SDS011;52211;50.154;8.682;2022-12-10T04:54:51;13.10;;;9.53;;
65567;SDS011;52211;50.154;8.682;2022-12-10T04:57:18;15.07;;;10.40;;
65567;SDS011;52211;50.154;8.682;2022-12-10T04:59:45;12.33;;;10.17;;
65567;SDS011;52211;50.154;8.682;2022-12-10T05:02:12;13.27;;;11.03;;
65567;SDS011;52211;50.154;8.682;2022-12-10T05:04:41;15.17;;;10.80;;
65567;SDS011;52211;50.154;8.682;2022-12-10T05:07:09;13.10;;;10.07;;
65567;SDS011;52211;50.154;8.682;2022-12-10T05:09:38;12.67;;;10.83;;
65567;SDS011;52211;50.154;8.682;2022-12-10T05:12:09;15.57;;;11.90;;
65567;SDS011;52211;50.154;8.682;2022-12-10T05:14:43;13.60;;;11.03;;
65567;SDS011;52211;50.154;8.682;2022-12-10T05:17:09;13.37;;;10.60;;
65567;SDS011;52211;50.154;8.682;2022-12-10T05:19:36;12.67;;;10.40;;
65567;SDS011;52211;50.154;8.682;2022-12-10T05:22:03;13.03;;;9.77;;
65567;SDS011;52211;50.154;8.682;2022-12-10T05:24:51;13.60;;;10.80;;
65567;SDS011;52211;50.154;8.682;2022-12-10T05:27:20;13.50;;;10.30;;
65567;SDS011;52211;50.154;8.682;2022-12-10T05:29:49;15.10;;;11.40;;
65567;SDS011;52211;50.154;8.682;2022-12-10T05:32:18;13.57;;;10.67;;
65567;SDS011;52211;50.154;8.682;2022-12-10T05:34:55;14.13;;;11.07;;
65567;SDS011;52211;50.154;8.682;2022-12-10T05:37:21;13.17;;;10.27;;
65567;SDS011;52211;50.154;8.682;2022-12-10T05:39:50;11.57;;;9.53;;
65567;SDS011;52211;50.154;8.682;2022-12-10T05:42:17;11.70;;;9.37;;
65567;SDS011;52211;50.154;8.682;2022-12-10T05:44:46;13.73;;;10.17;;
65567;SDS011;52211;50.154;8.682;2022-12-10T05:47:17;13.13;;;10.13;;
65567;SDS011;52211;50.154;8.682;2022-12-10T05:49:44;14.20;;;11.40;;
65567;SDS011;52211;50.154;8.682;2022-12-10T05:52:17;10.93;;;9.63;;
65567;SDS011;52211;50.154;8.682;2022-12-10T05:54:44;12.57;;;10.07;;
65567;SDS011;52211;50.154;8.682;2022-12-10T05:57:15;13.17;;;10.47;;
65567;SDS011;52211;50.154;8.682;2022-12-10T05:59:47;11.87;;;9.77;;
65567;SDS011;52211;50.154;8.682;2022-12-10T06:02:15;13.00;;;10.13;;
65567;SDS011;52211;50.154;8.682;2022-12-10T06:04:42;15.83;;;10.33;;
65567;SDS011;52211;50.154;8.682;2022-12-10T06:07:12;13.87;;;10.30;;
65567;SDS011;52211;50.154;8.682;2022-12-10T06:09:39;12.47;;;10.50;;
65567;SDS011;52211;50.154;8.682;2022-12-10T06:12:08;12.60;;;10.70;;
65567;SDS011;52211;50.154;8.682;2022-12-10T06:14:34;10.97;;;9.17;;
65567;SDS011;52211;50.154;8.682;2022-12-10T06:17:03;12.87;;;9.97;;
65567;SDS011;52211;50.154;8.682;2022-12-10T06:19:33;13.40;;;10.20;;
65567;SDS011;52211;50.154;8.682;2022-12-10T06:22:04;14.27;;;11.47;;
65567;SDS011;52211;50.154;8.682;2022-12-10T06:24:33;13.37;;;10.80;;
65567;SDS011;52211;50.154;8.682;2022-12-10T06:27:00;13.63;;;11.17;;
65567;SDS011;52211;50.154;8.682;2022-12-10T06:29:27;12.33;;;9.73;;
65567;SDS011;52211;50.154;8.682;2022-12-10T06:31:56;15.13;;;10.57;;
65567;SDS011;52211;50.154;8.682;2022-12-10T06:34:25;11.13;;;9.73;;
65567;SDS011;52211;50.154;8.682;2022-12-10T06:36:52;12.93;;;10.27;;
65567;SDS011;52211;50.154;8.682;2022-12-10T06:39:19;14.67;;;10.93;;
65567;SDS011;52211;50.154;8.682;2022-12-10T06:41:51;11.33;;;9.90;;
65567;SDS011;52211;50.154;8.682;2022-12-10T06:44:26;12.47;;;10.27;;
65567;SDS011;52211;50.154;8.682;2022-12-10T06:46:55;11.33;;;9.23;;
65567;SDS011;52211;50.154;8.682;2022-12-10T06:49:22;11.13;;;10.00;;
65567;SDS011;52211;50.154;8.682;2022-12-10T06:51:50;13.70;;;10.47;;
65567;SDS011;52211;50.154;8.682;2022-12-10T06:54:22;12.97;;;10.63;;
65567;SDS011;52211;50.154;8.682;2022-12-10T06:56:53;13.70;;;9.70;;
65567;SDS011;52211;50.154;8.682;2022-12-10T06:59:24;13.77;;;10.67;;
65567;SDS011;52211;50.154;8.682;2022-12-10T07:01:53;13.47;;;10.60;;
65567;SDS011;52211;50.154;8.682;2022-12-10T07:04:22;15.03;;;11.67;;
65567;SDS011;52211;50.154;8.682;2022-12-10T07:06:49;12.93;;;10.57;;
65567;SDS011;52211;50.154;8.682;2022-12-10T07:09:17;12.93;;;10.47;;
65567;SDS011;52211;50.154;8.682;2022-12-10T07:11:44;11.90;;;10.37;;
65567;SDS011;52211;50.154;8.682;2022-12-10T07:14:17;11.67;;;9.90;;
65567;SDS011;52211;50.154;8.682;2022-12-10T07:16:49;12.97;;;9.93;;
65567;SDS011;52211;50.154;8.682;2022-12-10T07:19:16;13.37;;;10.00;;
65567;SDS011;52211;50.154;8.682;2022-12-10T07:21:44;11.27;;;9.93;;
65567;SDS011;52211;50.154;8.682;2022-12-10T07:24:14;14.63;;;11.23;;
65567;SDS011;52211;50.154;8.682;2022-12-10T07:26:47;14.23;;;12.33;;
65567;SDS011;52211;50.154;8.682;2022-12-10T07:29:15;12.13;;;9.83;;
65567;SDS011;52211;50.154;8.682;2022-12-10T07:31:49;15.40;;;11.30;;
65567;SDS011;52211;50.154;8.682;2022-12-10T07:34:20;13.47;;;10.97;;
65567;SDS011;52211;50.154;8.682;2022-12-10T07:36:47;13.73;;;10.13;;
65567;SDS011;52211;50.154;8.682;2022-12-10T07:39:17;11.90;;;9.53;;
65567;SDS011;52211;50.154;8.682;2022-12-10T07:41:47;12.50;;;10.20;;
65567;SDS011;52211;50.154;8.682;2022-12-10T07:44:22;12.17;;;9.67;;
65567;SDS011;52211;50.154;8.682;2022-12-10T07:46:54;15.00;;;10.77;;
65567;SDS011;52211;50.154;8.682;2022-12-10T07:49:26;10.60;;;9.53;;
65567;SDS011;52211;50.154;8.682;2022-12-10T07:51:56;14.47;;;10.10;;
65567;SDS011;52211;50.154;8.682;2022-12-10T07:54:27;13.37;;;9.63;;
65567;SDS011;52211;50.154;8.682;2022-12-10T07:56:54;12.30;;;9.70;;
65567;SDS011;52211;50.154;8.682;2022-12-10T07:59:23;13.27;;;10.50;;
65567;SDS011;52211;50.154;8.682;2022-12-10T08:01:53;13.30;;;10.40;;
65567;SDS011;52211;50.154;8.682;2022-12-10T08:04:21;11.10;;;9.07;;
65567;SDS011;52211;50.154;8.682;2022-12-10T08:06:56;13.53;;;10.67;;
65567;SDS011;52211;50.154;8.682;2022-12-10T08:09:23;13.47;;;10.00;;
65567;SDS011;52211;50.154;8.682;2022-12-10T08:11:50;12.13;;;9.50;;
65567;SDS011;52211;50.154;8.682;2022-12-10T08:14:19;12.67;;;10.40;;
65567;SDS011;52211;50.154;8.682;2022-12-10T08:16:48;12.67;;;10.23;;
65567;SDS011;52211;50.154;8.682;2022-12-10T08:19:18;13.00;;;10.07;;
65567;SDS011;52211;50.154;8.682;2022-12-10T08:21:55;12.80;;;10.03;;
65567;SDS011;52211;50.154;8.682;2022-12-10T08:24:25;12.43;;;10.03;;
65567;SDS011;52211;50.154;8.682;2022-12-10T08:26:52;12.13;;;10.57;;
65567;SDS011;52211;50.154;8.682;2022-12-10T08:29:21;12.87;;;10.17;;
65567;SDS011;52211;50.154;8.682;2022-12-10T08:31:50;16.13;;;11.30;;
65567;SDS011;52211;50.154;8.682;2022-12-10T08:34:20;12.33;;;10.93;;
65567;SDS011;52211;50.154;8.682;2022-12-10T08:36:49;13.70;;;11.40;;
65567;SDS011;52211;50.154;8.682;2022-12-10T08:39:18;12.67;;;9.90;;
65567;SDS011;52211;50.154;8.682;2022-12-10T08:41:45;14.40;;;10.70;;
65567;SDS011;52211;50.154;8.682;2022-12-10T08:44:15;14.13;;;11.03;;
65567;SDS011;52211;50.154;8.682;2022-12-10T08:46:46;12.90;;;10.67;;
65567;SDS011;52211;50.154;8.682;2022-12-10T08:49:13;13.30;;;10.53;;
65567;SDS011;52211;50.154;8.682;2022-12-10T08:51:42;14.40;;;11.33;;
65567;SDS011;52211;50.154;8.682;2022-12-10T08:54:09;13.60;;;11.20;;
65567;SDS011;52211;50.154;8.682;2022-12-10T08:56:40;12.17;;;10.90;;
65567;SDS011;52211;50.154;8.682;2022-12-10T08:59:10;12.70;;;10.60;;
65567;SDS011;52211;50.154;8.682;2022-12-10T09:01:37;12.73;;;11.37;;
65567;SDS011;52211;50.154;8.682;2022-12-10T09:04:06;12.20;;;10.80;;
65567;SDS011;52211;50.154;8.682;2022-12-10T09:06:38;13.10;;;10.27;;
65567;SDS011;52211;50.154;8.682;2022-12-10T09:09:07;12.63;;;9.77;;
65567;SDS011;52211;50.154;8.682;2022-12-10T09:11:34;14.83;;;11.40;;
65567;SDS011;52211;50.154;8.682;2022-12-10T09:14:01;13.70;;;10.50;;
65567;SDS011;52211;50.154;8.682;2022-12-10T09:16:35;14.60;;;10.87;;
65567;SDS011;52211;50.154;8.682;2022-12-10T09:19:05;15.53;;;11.43;;
65567;SDS011;52211;50.154;8.682;2022-12-10T09:21:32;17.80;;;13.00;;
65567;SDS011;52211;50.154;8.682;2022-12-10T09:24:05;20.13;;;13.33;;
65567;SDS011;52211;50.154;8.682;2022-12-10T09:26:34;24.93;;;14.70;;
65567;SDS011;52211;50.154;8.682;2022-12-10T09:29:01;19.77;;;13.63;;
65567;SDS011;52211;50.154;8.682;2022-12-10T09:31:33;19.60;;;14.20;;
65567;SDS011;52211;50.154;8.682;2022-12-10T09:34:00;20.50;;;13.57;;
65567;SDS011;52211;50.154;8.682;2022-12-10T09:36:27;16.97;;;12.33;;
65567;SDS011;52211;50.154;8.682;2022-12-10T09:39:01;16.27;;;11.70;;
65567;SDS011;52211;50.154;8.682;2022-12-10T09:41:47;15.77;;;11.70;;
65567;SDS011;52211;50.154;8.682;2022-12-10T09:53:22;15.60;;;11.40;;
65567;SDS011;52211;50.154;8.682;2022-12-10T09:55:53;16.63;;;11.93;;
65567;SDS011;52211;50.154;8.682;2022-12-10T09:58:22;13.17;;;10.67;;
65567;SDS011;52211;50.154;8.682;2022-12-10T10:00:59;18.43;;;12.70;;
65567;SDS011;52211;50.154;8.682;2022-12-10T10:03:40;12.67;;;10.07;;
65567;SDS011;52211;50.154;8.682;2022-12-10T10:06:15;18.07;;;11.70;;
65567;SDS011;52211;50.154;8.682;2022-12-10T10:11:18;17.77;;;12.13;;
65567;SDS011;52211;50.154;8.682;2022-12-10T10:13:56;19.73;;;11.90;;
65567;SDS011;52211;50.154;8.682;2022-12-10T10:16:40;18.27;;;11.83;;
65567;SDS011;52211;50.154;8.682;2022-12-10T10:19:21;15.17;;;10.93;;
65567;SDS011;52211;50.154;8.682;2022-12-10T10:21:59;16.57;;;11.30;;
65567;SDS011;52211;50.154;8.682;2022-12-10T10:24:28;15.33;;;10.93;;
65567;SDS011;52211;50.154;8.682;2022-12-10T10:29:49;17.90;;;11.10;;
65567;SDS011;52211;50.154;8.682;2022-12-10T10:32:24;20.10;;;11.70;;
65567;SDS011;52211;50.154;8.682;2022-12-10T10:35:06;20.40;;;12.20;;
65567;SDS011;52211;50.154;8.682;2022-12-10T10:37:55;12.57;;;10.60;;
65567;SDS011;52211;50.154;8.682;2022-12-10T10:40:43;15.20;;;11.70;;
65567;SDS011;52211;50.154;8.682;2022-12-10T10:43:19;14.43;;;11.07;;
65567;SDS011;52211;50.154;8.682;2022-12-10T10:45:58;23.07;;;12.17;;
65567;SDS011;52211;50.154;8.682;2022-12-10T10:48:32;19.50;;;12.33;;
65567;SDS011;52211;50.154;8.682;2022-12-10T10:51:12;20.20;;;11.83;;
65567;SDS011;52211;50.154;8.682;2022-12-10T10:53:50;20.97;;;11.93;;
65567;SDS011;52211;50.154;8.682;2022-12-10T11:01:50;16.13;;;11.30;;
65567;SDS011;52211;50.154;8.682;2022-12-10T11:04:28;14.93;;;12.07;;
65567;SDS011;52211;50.154;8.682;2022-12-10T11:07:11;13.57;;;10.73;;
65567;SDS011;52211;50.154;8.682;2022-12-10T11:10:03;15.07;;;11.33;;
65567;SDS011;52211;50.154;8.682;2022-12-10T11:12:46;13.40;;;10.50;;
65567;SDS011;52211;50.154;8.682;2022-12-10T11:16:00;12.10;;;10.60;;
65567;SDS011;52211;50.154;8.682;2022-12-10T11:18:59;12.07;;;10.30;;
65567;SDS011;52211;50.154;8.682;2022-12-10T11:21:30;13.33;;;10.00;;
65567;SDS011;52211;50.154;8.682;2022-12-10T11:24:04;11.77;;;10.20;;
65567;SDS011;52211;50.154;8.682;2022-12-10T11:35:36;13.33;;;11.10;;
65567;SDS011;52211;50.154;8.682;2022-12-10T11:43:54;11.53;;;10.33;;
65567;SDS011;52211;50.154;8.682;2022-12-10T11:49:47;12.03;;;10.73;;
65567;SDS011;52211;50.154;8.682;2022-12-10T11:52:48;11.37;;;9.37;;
65567;SDS011;52211;50.154;8.682;2022-12-10T11:55:27;14.37;;;10.57;;
65567;SDS011;52211;50.154;8.682;2022-12-10T11:58:12;15.23;;;11.03;;
65567;SDS011;52211;50.154;8.682;2022-12-10T12:01:21;16.00;;;10.37;;
65567;SDS011;52211;50.154;8.682;2022-12-10T12:13:24;10.70;;;9.57;;
65567;SDS011;52211;50.154;8.682;2022-12-10T12:16:16;10.57;;;9.07;;
65567;SDS011;52211;50.154;8.682;2022-12-10T12:19:04;10.83;;;9.43;;
65567;SDS011;52211;50.154;8.682;2022-12-10T12:21:51;10.70;;;9.40;;
65567;SDS011;52211;50.154;8.682;2022-12-10T12:24:34;10.17;;;8.30;;
65567;SDS011;52211;50.154;8.682;2022-12-10T12:27:11;9.83;;;8.57;;
65567;SDS011;52211;50.154;8.682;2022-12-10T12:32:29;7.97;;;7.27;;
65567;SDS011;52211;50.154;8.682;2022-12-10T12:35:46;7.73;;;7.00;;
65567;SDS011;52211;50.154;8.682;2022-12-10T12:41:06;8.30;;;6.53;;
65567;SDS011;52211;50.154;8.682;2022-12-10T12:44:03;7.03;;;6.33;;
65567;SDS011;52211;50.154;8.682;2022-12-10T12:46:48;7.37;;;6.77;;
65567;SDS011;52211;50.154;8.682;2022-12-10T12:55:14;7.63;;;6.93;;
65567;SDS011;52211;50.154;8.682;2022-12-10T12:57:49;7.83;;;7.13;;
65567;SDS011;52211;50.154;8.682;2022-12-10T13:00:36;8.30;;;7.50;;
65567;SDS011;52211;50.154;8.682;2022-12-10T13:06:12;7.70;;;7.00;;
65567;SDS011;52211;50.154;8.682;2022-12-10T13:11:40;8.33;;;7.53;;
65567;SDS011;52211;50.154;8.682;2022-12-10T13:26:31;8.73;;;7.40;;
65567;SDS011;52211;50.154;8.682;2022-12-10T13:29:12;8.23;;;7.43;;
65567;SDS011;52211;50.154;8.682;2022-12-10T13:32:14;9.57;;;8.60;;
65567;SDS011;52211;50.154;8.682;2022-12-10T13:40:25;8.67;;;7.77;;
65567;SDS011;52211;50.154;8.682;2022-12-10T13:42:56;8.17;;;7.37;;
65567;SDS011;52211;50.154;8.682;2022-12-10T13:49:05;8.57;;;7.73;;
65567;SDS011;52211;50.154;8.682;2022-12-10T13:54:44;10.53;;;7.53;;
65567;SDS011;52211;50.154;8.682;2022-12-10T14:07:20;9.30;;;8.40;;
65567;SDS011;52211;50.154;8.682;2022-12-10T14:09:52;8.60;;;7.80;;
65567;SDS011;52211;50.154;8.682;2022-12-10T14:15:14;8.10;;;7.30;;
65567;SDS011;52211;50.154;8.682;2022-12-10T14:17:50;8.73;;;7.13;;
65567;SDS011;52211;50.154;8.682;2022-12-10T14:20:28;8.30;;;7.50;;
65567;SDS011;52211;50.154;8.682;2022-12-10T14:23:05;9.13;;;8.23;;
65567;SDS011;52211;50.154;8.682;2022-12-10T14:26:20;10.53;;;8.90;;
65567;SDS011;52211;50.154;8.682;2022-12-10T14:28:58;10.47;;;9.37;;
65567;SDS011;52211;50.154;8.682;2022-12-10T14:31:32;9.97;;;8.67;;
65567;SDS011;52211;50.154;8.682;2022-12-10T14:34:06;11.07;;;9.00;;
65567;SDS011;52211;50.154;8.682;2022-12-10T14:36:47;16.47;;;12.13;;
65567;SDS011;52211;50.154;8.682;2022-12-10T14:47:47;11.83;;;9.27;;
65567;SDS011;52211;50.154;8.682;2022-12-10T14:50:17;12.83;;;9.80;;
65567;SDS011;52211;50.154;8.682;2022-12-10T14:52:51;12.43;;;9.57;;
65567;SDS011;52211;50.154;8.682;2022-12-10T14:55:20;12.13;;;9.57;;
65567;SDS011;52211;50.154;8.682;2022-12-10T14:57:54;10.63;;;9.53;;
65567;SDS011;52211;50.154;8.682;2022-12-10T15:00:28;11.53;;;9.67;;
65567;SDS011;52211;50.154;8.682;2022-12-10T15:03:07;11.87;;;10.67;;
65567;SDS011;52211;50.154;8.682;2022-12-10T15:05:37;12.43;;;9.20;;
65567;SDS011;52211;50.154;8.682;2022-12-10T15:08:06;11.53;;;9.03;;
65567;SDS011;52211;50.154;8.682;2022-12-10T15:10:44;10.10;;;9.10;;
65567;SDS011;52211;50.154;8.682;2022-12-10T15:13:23;12.07;;;9.63;;
65567;SDS011;52211;50.154;8.682;2022-12-10T15:16:00;12.77;;;9.43;;
65567;SDS011;52211;50.154;8.682;2022-12-10T15:21:05;8.03;;;7.23;;
65567;SDS011;52211;50.154;8.682;2022-12-10T15:24:07;8.50;;;7.70;;
65567;SDS011;52211;50.154;8.682;2022-12-10T15:26:42;10.93;;;8.93;;
65567;SDS011;52211;50.154;8.682;2022-12-10T15:34:46;11.77;;;9.47;;
65567;SDS011;52211;50.154;8.682;2022-12-10T15:37:22;12.73;;;9.60;;
65567;SDS011;52211;50.154;8.682;2022-12-10T15:40:00;11.97;;;9.43;;
65567;SDS011;52211;50.154;8.682;2022-12-10T15:45:12;11.87;;;9.37;;
65567;SDS011;52211;50.154;8.682;2022-12-10T15:47:44;9.73;;;8.53;;
65567;SDS011;52211;50.154;8.682;2022-12-10T15:50:16;11.77;;;9.07;;
65567;SDS011;52211;50.154;8.682;2022-12-10T15:52:43;10.63;;;8.73;;
65567;SDS011;52211;50.154;8.682;2022-12-10T15:55:12;12.23;;;8.97;;
65567;SDS011;52211;50.154;8.682;2022-12-10T15:57:40;10.37;;;8.93;;
65567;SDS011;52211;50.154;8.682;2022-12-10T16:03:02;11.23;;;10.13;;
65567;SDS011;52211;50.154;8.682;2022-12-10T16:05:32;12.43;;;8.43;;
65567;SDS011;52211;50.154;8.682;2022-12-10T16:10:46;12.20;;;9.77;;
65567;SDS011;52211;50.154;8.682;2022-12-10T16:40:30;7.05;;;5.95;;
65567;SDS011;52211;50.154;8.682;2022-12-10T16:43:18;10.23;;;7.73;;
65567;SDS011;52211;50.154;8.682;2022-12-10T16:45:48;8.80;;;7.57;;
65567;SDS011;52211;50.154;8.682;2022-12-10T16:48:18;9.83;;;7.67;;
65567;SDS011;52211;50.154;8.682;2022-12-10T16:50:49;10.67;;;8.20;;
65567;SDS011;52211;50.154;8.682;2022-12-10T16:56:00;10.23;;;8.30;;
65567;SDS011;52211;50.154;8.682;2022-12-10T16:58:31;11.83;;;7.87;;
65567;SDS011;52211;50.154;8.682;2022-12-10T17:01:00;12.60;;;10.10;;
65567;SDS011;52211;50.154;8.682;2022-12-10T17:03:30;11.90;;;9.40;;
65567;SDS011;52211;50.154;8.682;2022-12-10T17:06:02;11.30;;;9.50;;
65567;SDS011;52211;50.154;8.682;2022-12-10T17:08:34;12.40;;;10.53;;
65567;SDS011;52211;50.154;8.682;2022-12-10T17:14:13;14.10;;;10.60;;
65567;SDS011;52211;50.154;8.682;2022-12-10T17:16:52;14.93;;;10.63;;
65567;SDS011;52211;50.154;8.682;2022-12-10T17:19:29;14.57;;;10.43;;
65567;SDS011;52211;50.154;8.682;2022-12-10T17:22:03;12.80;;;9.77;;
65567;SDS011;52211;50.154;8.682;2022-12-10T17:24:33;15.23;;;11.13;;
65567;SDS011;52211;50.154;8.682;2022-12-10T17:27:11;12.87;;;9.37;;
65567;SDS011;52211;50.154;8.682;2022-12-10T17:29:43;14.63;;;10.20;;
65567;SDS011;52211;50.154;8.682;2022-12-10T17:32:19;15.33;;;10.27;;
65567;SDS011;52211;50.154;8.682;2022-12-10T17:34:48;13.77;;;9.97;;
65567;SDS011;52211;50.154;8.682;2022-12-10T17:37:20;12.07;;;9.70;;
65567;SDS011;52211;50.154;8.682;2022-12-10T17:39:50;13.53;;;10.47;;
65567;SDS011;52211;50.154;8.682;2022-12-10T17:42:19;13.70;;;10.53;;
65567;SDS011;52211;50.154;8.682;2022-12-10T17:44:46;14.83;;;10.93;;
65567;SDS011;52211;50.154;8.682;2022-12-10T17:47:20;15.17;;;11.13;;
65567;SDS011;52211;50.154;8.682;2022-12-10T17:49:54;17.20;;;12.40;;
65567;SDS011;52211;50.154;8.682;2022-12-10T17:52:23;14.50;;;11.07;;
65567;SDS011;52211;50.154;8.682;2022-12-10T17:54:53;14.50;;;10.53;;
65567;SDS011;52211;50.154;8.682;2022-12-10T17:57:23;14.60;;;10.80;;
65567;SDS011;52211;50.154;8.682;2022-12-10T17:59:51;13.87;;;10.37;;
65567;SDS011;52211;50.154;8.682;2022-12-10T18:02:21;11.83;;;9.00;;